Celtic Warrior — 2IBU5 — position and weather

sailwx.info

Track history (hours):
 
Tides and Currents Weather Stations Pressure Air Temp Water Temp Dewpoint Dewpoint Depression Visibility Wind Speed Wind Dir Waves Ship Positions

Celtic Warrior

Last reported at 2017-Oct-18 22:13 UTC. Time now 2017-Oct-19 02:01 UTC.
Position N 50°37' W 006°19'.

Length 89 m; draft 5.7 m.

Type: Cargo ship. MMSI: 235108405.

Date/timePositionNaut miles runAvg speedWind from/ knotsBaromVisibWave heightAir tempDewpointWater temp
2017-Oct-18 22:13N 50°37' W 006°19'512.0
2017-Oct-18 21:49N 50°34' W 006°13'511.9
2017-Oct-18 21:22N 50°30' W 006°08'412.0
2017-Oct-18 21:00N 50°27' W 006°03'611.9
2017-Oct-18 20:30N 50°22' W 005°56'510.6
2017-Oct-18 20:00N 50°17' W 005°54'510.6
2017-Oct-18 19:30N 50°12' W 005°53'510.5
2017-Oct-18 19:00N 50°07' W 005°52'510.4
2017-Oct-18 18:29N 50°01' W 005°52'7 9.2
2017-Oct-18 17:46N 49°59' W 005°43'410.3
2017-Oct-18 17:24N 49°58' W 005°37'410.6
2017-Oct-18 17:00N 49°57' W 005°30'510.7
2017-Oct-18 16:30N 49°56' W 005°22'510.1
2017-Oct-18 16:00N 49°55' W 005°14'510.0
2017-Oct-18 15:30N 49°55' W 005°07'610.8
2017-Oct-18 14:59N 49°54' W 004°58'1111.3
2017-Oct-18 14:00N 49°52' W 004°41'5 9.8
2017-Oct-18 13:30N 49°55' W 004°36'510.2
2017-Oct-18 13:00N 49°59' W 004°31'612.3
2017-Oct-18 12:30N 50°01' W 004°21'612.5
2017-Oct-18 12:00N 50°03' W 004°12'612.9
2017-Oct-18 11:30N 50°06' W 004°03'713.3
2017-Oct-18 11:00N 50°07' W 003°53'713.6
2017-Oct-18 10:30N 50°09' W 003°43'713.5
2017-Oct-18 10:00N 50°11' W 003°33'612.7
2017-Oct-18 09:31N 50°13' W 003°23'612.2
2017-Oct-18 09:01N 50°14' W 003°14'611.7
2017-Oct-18 08:30N 50°16' W 003°05'611.2
2017-Oct-18 08:01N 50°17' W 002°57'510.7
2017-Oct-18 07:30N 50°19' W 002°49'510.4
2017-Oct-18 07:01N 50°21' W 002°41'510.2
2017-Oct-18 06:30N 50°23' W 002°34'2410.1
2017-Oct-18 04:07N 50°27' W 001°56'110.6
2017-Oct-18 03:59N 50°27' W 001°54'611.9
2017-Oct-18 03:28N 50°28' W 001°45'712.8
2017-Oct-18 02:57N 50°28' W 001°34'813.7
2017-Oct-18 02:22N 50°28' W 001°21'514.4
2017-Oct-18 02:00N 50°29' W 001°14'714.5
2017-Oct-18 01:31N 50°29' W 001°02'714.3
2017-Oct-18 01:01N 50°30' W 000°51'714.3
2017-Oct-18 00:30N 50°30' W 000°40'713.6
2017-Oct-18 00:00N 50°31' W 000°29'713.3
2017-Oct-17 23:30N 50°31' W 000°19'712.9
2017-Oct-17 23:00N 50°32' W 000°08'612.3
2017-Oct-17 22:30N 50°33' E 000°01'611.7
2017-Oct-17 22:00N 50°34' E 000°10'611.2
2017-Oct-17 21:30N 50°35' E 000°19'510.6
2017-Oct-17 21:00N 50°37' E 000°27'510.2
2017-Oct-17 20:30N 50°39' E 000°34'510.1
2017-Oct-17 20:00N 50°42' E 000°41'510.2
2017-Oct-17 19:31N 50°44' E 000°47'510.5
2017-Oct-17 19:00N 50°47' E 000°54'611.2
2017-Oct-17 18:30N 50°51' E 001°01'612.2
2017-Oct-17 18:00N 50°54' E 001°09'713.1
2017-Oct-17 17:30N 50°59' E 001°17'713.7
2017-Oct-17 17:00N 51°03' E 001°25'713.5
2017-Oct-17 16:30N 51°07' E 001°34'612.7
2017-Oct-17 16:00N 51°12' E 001°41'612.0
2017-Oct-17 15:30N 51°16' E 001°47'611.5
2017-Oct-17 15:00N 51°21' E 001°51'510.7
2017-Oct-17 14:30N 51°26' E 001°56'510.2
2017-Oct-17 14:00N 51°30' E 002°00'5 9.8
2017-Oct-17 13:30N 51°34' E 002°05'5 9.7
2017-Oct-17 12:59N 51°38' E 002°10'89 9.7
2017-Oct-17 03:48N 52°47' E 003°43'5 7.3
2017-Oct-17 03:08N 52°51' E 003°47'42 8.3
2017-Oct-16 22:05N 53°22' E 004°33'111.3
2017-Oct-16 21:57N 53°23' E 004°34'610.9
2017-Oct-16 21:25N 53°28' E 004°40'611.6
2017-Oct-16 20:52N 53°31' E 004°50'511.6
2017-Oct-16 20:24N 53°33' E 004°58'2111.0
2017-Oct-16 18:29N 53°39' E 005°32'510.3
2017-Oct-16 17:59N 53°41' E 005°41'1210.4
2017-Oct-16 16:47N 53°45' E 006°00'410.6
2017-Oct-16 16:25N 53°47' E 006°07'410.7
2017-Oct-16 16:00N 53°48' E 006°14'610.8
2017-Oct-16 15:27N 53°50' E 006°23'511.3
2017-Oct-16 15:00N 53°51' E 006°32'611.8
2017-Oct-16 14:30N 53°52' E 006°41'2112.3
2017-Oct-16 12:47N 53°58' E 007°16'412.3
2017-Oct-16 12:30N 53°59' E 007°22'1312.3
2017-Oct-16 11:27N 54°02' E 007°43'1912.1
2017-Oct-16 09:53N 53°60' E 008°15'512.1
2017-Oct-16 09:29N 53°59' E 008°23'611.5
2017-Oct-16 09:00N 53°58' E 008°33'510.0
2017-Oct-16 08:30N 53°56' E 008°40'5 9.6
2017-Oct-16 08:01N 53°52' E 008°44'4 8.4
2017-Oct-16 07:30N 53°50' E 008°51'4 8.5
2017-Oct-16 07:00N 53°51' E 008°58'4 9.0
2017-Oct-16 06:30N 53°53' E 009°05'2 4.9
2017-Oct-16 06:00N 53°54' E 009°09'0 0.0
2017-Oct-16 05:30N 53°54' E 009°09'2 3.5
2017-Oct-16 05:00N 53°55' E 009°11'4 8.8
2017-Oct-16 04:30N 53°58' E 009°16'4 8.7
2017-Oct-16 04:00N 54°02' E 009°18'4 8.6
2017-Oct-16 03:30N 54°07' E 009°20'4 7.8
2017-Oct-16 03:00N 54°10' E 009°24'4 8.5
2017-Oct-16 02:30N 54°11' E 009°31'4 8.5
2017-Oct-16 02:00N 54°14' E 009°36'4 7.2
2017-Oct-16 01:30N 54°17' E 009°39'3 5.9
2017-Oct-16 01:00N 54°19' E 009°43'2 3.6
2017-Oct-16 00:30N 54°20' E 009°45'4 7.6
2017-Oct-15 23:59N 54°22' E 009°51'4 8.2
2017-Oct-15 23:30N 54°21' E 009°58'6 5.8
2017-Oct-15 22:26N 54°22' E 010°08'0 0.7
2017-Oct-15 21:49N 54°22' E 010°09'1 1.9
2017-Oct-15 21:30N 54°22' E 010°10'1 1.1
2017-Oct-15 21:00N 54°22' E 010°10'3 5.2
2017-Oct-15 20:28N 54°25' E 010°12'511.4
2017-Oct-15 20:00N 54°29' E 010°16'510.7
2017-Oct-15 19:30N 54°32' E 010°25'611.5
2017-Oct-15 19:00N 54°34' E 010°33'611.2
2017-Oct-15 18:30N 54°35' E 010°43'611.0
2017-Oct-15 18:00N 54°36' E 010°52'611.5
2017-Oct-15 17:30N 54°36' E 011°02'611.2
2017-Oct-15 17:00N 54°36' E 011°12'611.8
2017-Oct-15 16:30N 54°33' E 011°21'611.3
2017-Oct-15 16:00N 54°31' E 011°29'611.9
2017-Oct-15 15:30N 54°28' E 011°39'611.7
2017-Oct-15 15:00N 54°26' E 011°48'1111.6
2017-Oct-15 14:00N 54°27' E 012°08'611.2
2017-Oct-15 13:30N 54°33' E 012°12'611.6
2017-Oct-15 13:00N 54°38' E 012°15'611.3
2017-Oct-15 12:30N 54°41' E 012°23'611.4
2017-Oct-15 12:00N 54°44' E 012°32'611.6
2017-Oct-15 11:30N 54°47' E 012°41'1511.4
2017-Oct-15 10:12N 54°53' E 013°05'211.5
2017-Oct-15 10:00N 54°53' E 013°08'611.5
2017-Oct-15 09:30N 54°55' E 013°18'1111.1
2017-Oct-15 08:33N 54°59' E 013°35'210.7
2017-Oct-15 08:21N 55°00' E 013°38'411.1
2017-Oct-15 08:00N 55°01' E 013°45'611.3
2017-Oct-15 07:30N 55°03' E 013°54'611.5
2017-Oct-15 07:00N 55°05' E 014°04'611.7
2017-Oct-15 06:30N 55°09' E 014°11'611.7
2017-Oct-15 06:00N 55°13' E 014°17'611.7
2017-Oct-15 05:30N 55°18' E 014°24'611.6
2017-Oct-15 05:00N 55°23' E 014°30'611.2
2017-Oct-15 04:27N 55°27' E 014°38'511.6
2017-Oct-15 03:59N 55°30' E 014°46'611.5
2017-Oct-15 03:30N 55°32' E 014°54'611.4
2017-Oct-15 03:00N 55°35' E 015°03'611.4
2017-Oct-15 02:30N 55°38' E 015°12'611.0
2017-Oct-15 02:00N 55°41' E 015°20'510.8
2017-Oct-15 01:30N 55°43' E 015°29'510.9
2017-Oct-15 01:00N 55°46' E 015°37'510.9
2017-Oct-15 00:30N 55°49' E 015°46'611.1
2017-Oct-15 00:00N 55°51' E 015°54'611.2
2017-Oct-14 23:30N 55°55' E 016°02'611.2
2017-Oct-14 23:00N 55°58' E 016°11'611.3
2017-Oct-14 22:30N 56°01' E 016°20'611.6
2017-Oct-14 22:00N 56°03' E 016°28'611.7
2017-Oct-14 21:30N 56°07' E 016°37'611.5
2017-Oct-14 21:00N 56°10' E 016°46'611.5
2017-Oct-14 20:29N 56°14' E 016°54'2211.2
2017-Oct-14 18:31N 56°28' E 017°24'  
Track history (hours):
 
Tides and Currents Weather Stations Pressure Air Temp Water Temp Dewpoint Dewpoint Depression Visibility Wind Speed Wind Dir Waves Ship Positions

Celtic Warrior

Last reported at 2017-Oct-18 22:13 UTC. Time now 2017-Oct-19 02:01 UTC.
Position N 50°37' W 006°19'.

Length 89 m; draft 5.7 m.

Type: Cargo ship. MMSI: 235108405.

Date/timePositionNaut miles runAvg speedWind from/ knotsBaromVisibWave heightAir tempDewpointWater temp
2017-Oct-18 22:13N 50°37' W 006°19'512.0
2017-Oct-18 21:49N 50°34' W 006°13'511.9
2017-Oct-18 21:22N 50°30' W 006°08'412.0
2017-Oct-18 21:00N 50°27' W 006°03'611.9
2017-Oct-18 20:30N 50°22' W 005°56'510.6
2017-Oct-18 20:00N 50°17' W 005°54'510.6
2017-Oct-18 19:30N 50°12' W 005°53'510.5
2017-Oct-18 19:00N 50°07' W 005°52'510.4
2017-Oct-18 18:29N 50°01' W 005°52'7 9.2
2017-Oct-18 17:46N 49°59' W 005°43'410.3
2017-Oct-18 17:24N 49°58' W 005°37'410.6
2017-Oct-18 17:00N 49°57' W 005°30'510.7
2017-Oct-18 16:30N 49°56' W 005°22'510.1
2017-Oct-18 16:00N 49°55' W 005°14'510.0
2017-Oct-18 15:30N 49°55' W 005°07'610.8
2017-Oct-18 14:59N 49°54' W 004°58'1111.3
2017-Oct-18 14:00N 49°52' W 004°41'5 9.8
2017-Oct-18 13:30N 49°55' W 004°36'510.2
2017-Oct-18 13:00N 49°59' W 004°31'612.3
2017-Oct-18 12:30N 50°01' W 004°21'612.5
2017-Oct-18 12:00N 50°03' W 004°12'612.9
2017-Oct-18 11:30N 50°06' W 004°03'713.3
2017-Oct-18 11:00N 50°07' W 003°53'713.6
2017-Oct-18 10:30N 50°09' W 003°43'713.5
2017-Oct-18 10:00N 50°11' W 003°33'612.7
2017-Oct-18 09:31N 50°13' W 003°23'612.2
2017-Oct-18 09:01N 50°14' W 003°14'611.7
2017-Oct-18 08:30N 50°16' W 003°05'611.2
2017-Oct-18 08:01N 50°17' W 002°57'510.7
2017-Oct-18 07:30N 50°19' W 002°49'510.4
2017-Oct-18 07:01N 50°21' W 002°41'510.2
2017-Oct-18 06:30N 50°23' W 002°34'2410.1
2017-Oct-18 04:07N 50°27' W 001°56'110.6
2017-Oct-18 03:59N 50°27' W 001°54'611.9
2017-Oct-18 03:28N 50°28' W 001°45'712.8
2017-Oct-18 02:57N 50°28' W 001°34'813.7
2017-Oct-18 02:22N 50°28' W 001°21'514.4
2017-Oct-18 02:00N 50°29' W 001°14'714.5
2017-Oct-18 01:31N 50°29' W 001°02'714.3
2017-Oct-18 01:01N 50°30' W 000°51'714.3
2017-Oct-18 00:30N 50°30' W 000°40'713.6
2017-Oct-18 00:00N 50°31' W 000°29'713.3
2017-Oct-17 23:30N 50°31' W 000°19'712.9
2017-Oct-17 23:00N 50°32' W 000°08'612.3
2017-Oct-17 22:30N 50°33' E 000°01'611.7
2017-Oct-17 22:00N 50°34' E 000°10'611.2
2017-Oct-17 21:30N 50°35' E 000°19'510.6
2017-Oct-17 21:00N 50°37' E 000°27'510.2
2017-Oct-17 20:30N 50°39' E 000°34'510.1
2017-Oct-17 20:00N 50°42' E 000°41'510.2
2017-Oct-17 19:31N 50°44' E 000°47'510.5
2017-Oct-17 19:00N 50°47' E 000°54'611.2
2017-Oct-17 18:30N 50°51' E 001°01'612.2
2017-Oct-17 18:00N 50°54' E 001°09'713.1
2017-Oct-17 17:30N 50°59' E 001°17'713.7
2017-Oct-17 17:00N 51°03' E 001°25'713.5
2017-Oct-17 16:30N 51°07' E 001°34'612.7
2017-Oct-17 16:00N 51°12' E 001°41'612.0
2017-Oct-17 15:30N 51°16' E 001°47'611.5
2017-Oct-17 15:00N 51°21' E 001°51'510.7
2017-Oct-17 14:30N 51°26' E 001°56'510.2
2017-Oct-17 14:00N 51°30' E 002°00'5 9.8
2017-Oct-17 13:30N 51°34' E 002°05'5 9.7
2017-Oct-17 12:59N 51°38' E 002°10'89 9.7
2017-Oct-17 03:48N 52°47' E 003°43'5 7.3
2017-Oct-17 03:08N 52°51' E 003°47'42 8.3
2017-Oct-16 22:05N 53°22' E 004°33'111.3
2017-Oct-16 21:57N 53°23' E 004°34'610.9
2017-Oct-16 21:25N 53°28' E 004°40'611.6
2017-Oct-16 20:52N 53°31' E 004°50'511.6
2017-Oct-16 20:24N 53°33' E 004°58'2111.0
2017-Oct-16 18:29N 53°39' E 005°32'510.3
2017-Oct-16 17:59N 53°41' E 005°41'1210.4
2017-Oct-16 16:47N 53°45' E 006°00'410.6
2017-Oct-16 16:25N 53°47' E 006°07'410.7
2017-Oct-16 16:00N 53°48' E 006°14'610.8
2017-Oct-16 15:27N 53°50' E 006°23'511.3
2017-Oct-16 15:00N 53°51' E 006°32'611.8
2017-Oct-16 14:30N 53°52' E 006°41'2112.3
2017-Oct-16 12:47N 53°58' E 007°16'412.3
2017-Oct-16 12:30N 53°59' E 007°22'1312.3
2017-Oct-16 11:27N 54°02' E 007°43'1912.1
2017-Oct-16 09:53N 53°60' E 008°15'512.1
2017-Oct-16 09:29N 53°59' E 008°23'611.5
2017-Oct-16 09:00N 53°58' E 008°33'510.0
2017-Oct-16 08:30N 53°56' E 008°40'5 9.6
2017-Oct-16 08:01N 53°52' E 008°44'4 8.4
2017-Oct-16 07:30N 53°50' E 008°51'4 8.5
2017-Oct-16 07:00N 53°51' E 008°58'4 9.0
2017-Oct-16 06:30N 53°53' E 009°05'2 4.9
2017-Oct-16 06:00N 53°54' E 009°09'0 0.0
2017-Oct-16 05:30N 53°54' E 009°09'2 3.5
2017-Oct-16 05:00N 53°55' E 009°11'4 8.8
2017-Oct-16 04:30N 53°58' E 009°16'4 8.7
2017-Oct-16 04:00N 54°02' E 009°18'4 8.6
2017-Oct-16 03:30N 54°07' E 009°20'4 7.8
2017-Oct-16 03:00N 54°10' E 009°24'4 8.5
2017-Oct-16 02:30N 54°11' E 009°31'4 8.5
2017-Oct-16 02:00N 54°14' E 009°36'4 7.2
2017-Oct-16 01:30N 54°17' E 009°39'3 5.9
2017-Oct-16 01:00N 54°19' E 009°43'2 3.6
2017-Oct-16 00:30N 54°20' E 009°45'4 7.6
2017-Oct-15 23:59N 54°22' E 009°51'4 8.2
2017-Oct-15 23:30N 54°21' E 009°58'6 5.8
2017-Oct-15 22:26N 54°22' E 010°08'0 0.7
2017-Oct-15 21:49N 54°22' E 010°09'1 1.9
2017-Oct-15 21:30N 54°22' E 010°10'1 1.1
2017-Oct-15 21:00N 54°22' E 010°10'3 5.2
2017-Oct-15 20:28N 54°25' E 010°12'511.4
2017-Oct-15 20:00N 54°29' E 010°16'510.7
2017-Oct-15 19:30N 54°32' E 010°25'611.5
2017-Oct-15 19:00N 54°34' E 010°33'611.2
2017-Oct-15 18:30N 54°35' E 010°43'611.0
2017-Oct-15 18:00N 54°36' E 010°52'611.5
2017-Oct-15 17:30N 54°36' E 011°02'611.2
2017-Oct-15 17:00N 54°36' E 011°12'611.8
2017-Oct-15 16:30N 54°33' E 011°21'611.3
2017-Oct-15 16:00N 54°31' E 011°29'611.9
2017-Oct-15 15:30N 54°28' E 011°39'611.7
2017-Oct-15 15:00N 54°26' E 011°48'1111.6
2017-Oct-15 14:00N 54°27' E 012°08'611.2
2017-Oct-15 13:30N 54°33' E 012°12'611.6
2017-Oct-15 13:00N 54°38' E 012°15'611.3
2017-Oct-15 12:30N 54°41' E 012°23'611.4
2017-Oct-15 12:00N 54°44' E 012°32'611.6
2017-Oct-15 11:30N 54°47' E 012°41'1511.4
2017-Oct-15 10:12N 54°53' E 013°05'211.5
2017-Oct-15 10:00N 54°53' E 013°08'611.5
2017-Oct-15 09:30N 54°55' E 013°18'1111.1
2017-Oct-15 08:33N 54°59' E 013°35'210.7
2017-Oct-15 08:21N 55°00' E 013°38'411.1
2017-Oct-15 08:00N 55°01' E 013°45'611.3
2017-Oct-15 07:30N 55°03' E 013°54'611.5
2017-Oct-15 07:00N 55°05' E 014°04'611.7
2017-Oct-15 06:30N 55°09' E 014°11'611.7
2017-Oct-15 06:00N 55°13' E 014°17'611.7
2017-Oct-15 05:30N 55°18' E 014°24'611.6
2017-Oct-15 05:00N 55°23' E 014°30'611.2
2017-Oct-15 04:27N 55°27' E 014°38'511.6
2017-Oct-15 03:59N 55°30' E 014°46'611.5
2017-Oct-15 03:30N 55°32' E 014°54'611.4
2017-Oct-15 03:00N 55°35' E 015°03'611.4
2017-Oct-15 02:30N 55°38' E 015°12'611.0
2017-Oct-15 02:00N 55°41' E 015°20'510.8
2017-Oct-15 01:30N 55°43' E 015°29'510.9
2017-Oct-15 01:00N 55°46' E 015°37'510.9
2017-Oct-15 00:30N 55°49' E 015°46'611.1
2017-Oct-15 00:00N 55°51' E 015°54'611.2
2017-Oct-14 23:30N 55°55' E 016°02'611.2
2017-Oct-14 23:00N 55°58' E 016°11'611.3
2017-Oct-14 22:30N 56°01' E 016°20'611.6
2017-Oct-14 22:00N 56°03' E 016°28'611.7
2017-Oct-14 21:30N 56°07' E 016°37'611.5
2017-Oct-14 21:00N 56°10' E 016°46'611.5
2017-Oct-14 20:29N 56°14' E 016°54'2211.2
2017-Oct-14 18:31N 56°28' E 017°24'  

Dump ship's entire track history